createdAt,value
2018-09-20T00:00:12.727Z,80.00
2018-09-20T00:02:41.351Z,79.70
2018-09-20T00:05:08.935Z,80.10
2018-09-20T00:07:36.576Z,79.90
2018-09-20T00:10:04.988Z,79.20
2018-09-20T00:12:32.622Z,79.80
2018-09-20T00:15:00.190Z,80.10
2018-09-20T00:17:27.721Z,80.30
2018-09-20T00:19:55.260Z,80.10
2018-09-20T00:22:22.796Z,79.00
2018-09-20T00:24:50.494Z,78.20
2018-09-20T00:27:18.076Z,78.50
2018-09-20T00:29:45.977Z,78.20
2018-09-20T00:32:13.494Z,78.20
2018-09-20T00:34:41.066Z,78.60
2018-09-20T00:37:08.658Z,78.20
2018-09-20T00:39:36.309Z,78.50
2018-09-20T00:42:03.874Z,79.50
2018-09-20T00:44:31.443Z,78.70
2018-09-20T00:46:59.151Z,79.10
2018-09-20T00:49:26.690Z,78.00
2018-09-20T00:51:54.235Z,78.20
2018-09-20T00:54:21.823Z,78.10
2018-09-20T00:56:49.489Z,78.60
2018-09-20T00:59:17.070Z,78.70
2018-09-20T01:01:44.578Z,78.10
2018-09-20T01:04:12.425Z,78.80
2018-09-20T01:06:40.207Z,78.20
2018-09-20T01:09:10.001Z,78.80
2018-09-20T01:11:38.502Z,79.40
2018-09-20T01:14:06.446Z,79.50
2018-09-20T01:16:34.406Z,78.70
2018-09-20T01:19:03.042Z,79.60
2018-09-20T01:21:30.879Z,79.90
2018-09-20T01:23:59.027Z,79.20
2018-09-20T01:26:26.961Z,79.70
2018-09-20T01:28:55.157Z,80.00
2018-09-20T01:31:23.048Z,80.50
2018-09-20T01:33:51.040Z,80.10
2018-09-20T01:36:19.061Z,80.30
2018-09-20T01:38:46.945Z,80.60
2018-09-20T01:41:14.911Z,80.80
2018-09-20T01:43:42.804Z,80.80
2018-09-20T01:46:10.591Z,81.00
2018-09-20T01:48:38.508Z,80.60
2018-09-20T01:51:06.482Z,80.80
2018-09-20T01:53:35.427Z,80.80
2018-09-20T01:56:03.379Z,81.70
2018-09-20T01:58:31.319Z,81.50
2018-09-20T02:00:59.340Z,81.80
2018-09-20T02:03:27.263Z,81.50
2018-09-20T02:05:55.138Z,81.60
2018-09-20T02:08:22.967Z,81.60
2018-09-20T02:10:51.000Z,82.20
2018-09-20T02:13:18.923Z,82.30
2018-09-20T02:15:46.999Z,81.70
2018-09-20T02:18:14.927Z,82.20
2018-09-20T02:20:42.917Z,82.70
2018-09-20T02:23:10.859Z,81.80
2018-09-20T02:25:39.230Z,82.10
2018-09-20T02:28:07.407Z,80.70
2018-09-20T02:30:35.415Z,80.00
2018-09-20T02:33:03.305Z,80.00
2018-09-20T02:35:31.264Z,80.00
2018-09-20T02:37:59.214Z,79.60
2018-09-20T02:40:27.131Z,79.80
2018-09-20T02:42:55.078Z,79.90
2018-09-20T02:45:22.896Z,79.80
2018-09-20T02:47:51.116Z,79.90
2018-09-20T02:50:19.048Z,79.80
2018-09-20T02:52:47.029Z,80.20
2018-09-20T02:55:15.154Z,80.60
2018-09-20T02:57:43.169Z,81.10
2018-09-20T03:00:11.105Z,81.60
2018-09-20T03:02:39.015Z,81.80
2018-09-20T03:05:07.020Z,81.80
2018-09-20T03:07:34.876Z,82.00
2018-09-20T03:10:02.871Z,82.80
2018-09-20T03:12:30.780Z,82.30
2018-09-20T03:14:58.670Z,82.00
2018-09-20T03:17:26.643Z,82.20
2018-09-20T03:19:54.644Z,82.60
2018-09-20T03:22:22.613Z,83.10
2018-09-20T03:24:50.534Z,83.30
2018-09-20T03:27:18.542Z,83.80
2018-09-20T03:29:46.467Z,83.90
2018-09-20T03:32:14.371Z,83.90
2018-09-20T03:34:42.264Z,83.70
2018-09-20T03:37:10.235Z,83.30
2018-09-20T03:39:38.158Z,83.00
2018-09-20T03:42:06.082Z,83.20
2018-09-20T03:44:34.135Z,83.00
2018-09-20T03:47:02.248Z,83.00
2018-09-20T03:49:30.181Z,83.40
2018-09-20T03:51:58.311Z,83.60
2018-09-20T03:54:26.192Z,83.50
2018-09-20T03:56:54.320Z,83.60
2018-09-20T03:59:22.185Z,83.40
2018-09-20T04:01:50.173Z,83.60
2018-09-20T04:04:18.105Z,83.80
2018-09-20T04:06:45.977Z,84.40
2018-09-20T04:09:13.870Z,85.10
2018-09-20T04:11:41.780Z,85.50
2018-09-20T04:14:09.745Z,85.60
2018-09-20T04:16:37.714Z,85.70
2018-09-20T04:19:05.975Z,86.40
2018-09-20T04:21:34.901Z,87.20
2018-09-20T04:24:04.531Z,87.30
2018-09-20T04:26:32.749Z,88.30
2018-09-20T04:29:00.910Z,88.70
2018-09-20T04:31:29.870Z,88.80
2018-09-20T04:33:59.016Z,88.80
2018-09-20T04:36:26.983Z,88.80
2018-09-20T04:38:54.987Z,88.80
2018-09-20T04:41:23.033Z,89.10
2018-09-20T04:43:50.982Z,89.40
2018-09-20T04:46:18.953Z,88.90
2018-09-20T04:48:46.953Z,89.20
2018-09-20T04:51:14.993Z,89.20
2018-09-20T04:53:43.037Z,89.50
2018-09-20T04:56:11.051Z,88.90
2018-09-20T04:58:38.982Z,88.40
2018-09-20T05:01:07.166Z,88.90
2018-09-20T05:03:34.989Z,88.80
2018-09-20T05:06:03.029Z,89.60
2018-09-20T05:08:31.303Z,89.90
2018-09-20T05:10:59.268Z,90.30
2018-09-20T05:13:27.204Z,90.50
2018-09-20T05:15:55.118Z,90.70
2018-09-20T05:18:22.969Z,91.00
2018-09-20T05:20:50.887Z,91.10
2018-09-20T05:23:18.746Z,91.20
2018-09-20T05:25:46.749Z,90.80
2018-09-20T05:28:14.699Z,90.70
2018-09-20T05:30:42.891Z,90.70
2018-09-20T05:33:11.074Z,90.70
2018-09-20T05:35:39.070Z,90.70
2018-09-20T05:38:06.992Z,90.40
2018-09-20T05:40:34.907Z,90.00
2018-09-20T05:43:02.938Z,89.80
2018-09-20T05:45:31.008Z,89.70
2018-09-20T05:47:58.913Z,89.60
2018-09-20T05:50:26.874Z,89.40
2018-09-20T05:52:55.083Z,89.10
2018-09-20T05:55:23.146Z,88.20
2018-09-20T05:57:51.242Z,88.30
2018-09-20T06:00:19.307Z,87.80
2018-09-20T06:02:47.250Z,87.70
2018-09-20T06:05:15.229Z,88.00
2018-09-20T06:07:43.345Z,87.90
2018-09-20T06:10:11.312Z,87.70
2018-09-20T06:12:39.113Z,87.10
2018-09-20T06:15:07.089Z,87.20
2018-09-20T06:17:35.198Z,86.70
2018-09-20T06:20:03.143Z,86.60
2018-09-20T06:22:31.271Z,86.10
2018-09-20T06:24:59.266Z,85.90
2018-09-20T06:27:27.299Z,85.70
2018-09-20T06:29:55.420Z,85.50
2018-09-20T06:32:23.559Z,85.10
2018-09-20T06:34:51.436Z,84.30
2018-09-20T06:37:19.257Z,84.00
2018-09-20T06:39:47.577Z,82.20
2018-09-20T06:42:16.003Z,81.40
2018-09-20T06:44:44.190Z,79.40
2018-09-20T06:47:12.133Z,77.50
2018-09-20T06:49:40.061Z,75.20
2018-09-20T06:52:08.035Z,73.50
2018-09-20T06:54:41.739Z,71.40
2018-09-20T06:57:28.154Z,70.10
2018-09-20T06:59:58.166Z,69.00
2018-09-20T07:02:26.160Z,67.60
2018-09-20T07:04:54.993Z,67.20
2018-09-20T07:07:22.862Z,66.80
2018-09-20T07:09:51.064Z,66.20
2018-09-20T07:12:18.941Z,65.10
2018-09-20T07:14:46.790Z,64.10
2018-09-20T07:17:14.685Z,63.80
2018-09-20T07:19:42.602Z,61.90
2018-09-20T07:22:10.870Z,61.80
2018-09-20T07:24:39.053Z,61.10
2018-09-20T07:27:07.281Z,60.50
2018-09-20T07:29:35.303Z,59.80
2018-09-20T07:32:03.377Z,58.80
2018-09-20T07:34:31.340Z,58.90
2018-09-20T07:36:59.193Z,58.10
2018-09-20T07:39:27.184Z,58.00
2018-09-20T07:41:55.163Z,57.90
2018-09-20T07:44:23.037Z,58.00
2018-09-20T07:46:50.888Z,58.10
2018-09-20T07:49:18.970Z,58.10
2018-09-20T07:51:47.531Z,58.20
2018-09-20T07:54:15.577Z,58.40
2018-09-20T07:56:43.541Z,58.20
2018-09-20T07:59:11.847Z,58.20
2018-09-20T08:01:40.019Z,58.20
2018-09-20T08:04:07.857Z,58.00
2018-09-20T08:06:36.005Z,57.60
2018-09-20T08:09:05.994Z,57.00
2018-09-20T08:11:34.055Z,56.40
2018-09-20T08:14:03.040Z,56.50
2018-09-20T08:16:30.934Z,56.30
2018-09-20T08:18:58.897Z,56.70
2018-09-20T08:21:27.091Z,56.10
2018-09-20T08:23:55.145Z,55.60
2018-09-20T08:26:24.542Z,55.20
2018-09-20T08:28:52.095Z,54.70
2018-09-20T08:31:19.402Z,54.00
2018-09-20T08:33:47.341Z,53.80
2018-09-20T08:36:15.301Z,53.50
2018-09-20T08:38:43.251Z,53.10
2018-09-20T08:41:11.477Z,52.80
2018-09-20T08:43:39.675Z,52.70
2018-09-20T08:46:07.587Z,52.40
2018-09-20T08:48:35.556Z,51.80
2018-09-20T08:51:03.573Z,51.80
2018-09-20T08:53:31.340Z,51.80
2018-09-20T08:55:59.381Z,50.90
2018-09-20T08:58:31.304Z,51.50
2018-09-20T09:01:00.279Z,50.60
2018-09-20T09:03:28.238Z,51.10
2018-09-20T09:05:56.061Z,51.40
2018-09-20T09:08:24.360Z,52.00
2018-09-20T09:10:52.359Z,52.20
2018-09-20T09:13:20.371Z,52.20
2018-09-20T09:15:48.247Z,52.60
2018-09-20T09:18:16.164Z,53.40
2018-09-20T09:20:44.166Z,53.80
2018-09-20T09:23:12.256Z,53.80
2018-09-20T09:25:40.300Z,53.40
2018-09-20T09:28:08.527Z,53.80
2018-09-20T09:30:36.689Z,54.40
2018-09-20T09:33:04.761Z,54.60
2018-09-20T09:35:32.946Z,54.00
2018-09-20T09:38:00.847Z,53.60
2018-09-20T09:40:28.803Z,52.80
2018-09-20T09:42:57.024Z,52.60
2018-09-20T09:45:24.919Z,52.60
2018-09-20T09:47:52.882Z,52.70
2018-09-20T09:50:20.781Z,51.90
2018-09-20T09:52:48.765Z,51.80
2018-09-20T09:55:16.782Z,50.80
2018-09-20T09:57:49.207Z,51.00
2018-09-20T10:00:20.201Z,50.90
2018-09-20T10:02:48.210Z,50.40
2018-09-20T10:05:16.168Z,48.90
2018-09-20T10:07:44.121Z,49.00
2018-09-20T10:10:12.010Z,48.90
2018-09-20T10:12:40.032Z,48.10
2018-09-20T10:15:07.973Z,48.00
2018-09-20T10:17:36.015Z,47.10
2018-09-20T10:20:04.034Z,46.80
2018-09-20T10:22:31.906Z,46.30
2018-09-20T10:25:00.132Z,45.80
2018-09-20T10:27:28.117Z,46.00
2018-09-20T10:29:56.061Z,45.90
2018-09-20T10:32:24.178Z,45.80
2018-09-20T10:34:52.487Z,45.60
2018-09-20T10:37:20.431Z,45.50
2018-09-20T10:39:48.330Z,45.70
2018-09-20T10:42:16.271Z,45.90
2018-09-20T10:45:00.997Z,45.30
2018-09-20T10:47:29.309Z,45.90
2018-09-20T10:49:57.410Z,45.40
2018-09-20T10:52:25.758Z,46.10
2018-09-20T10:54:55.677Z,46.10
2018-09-20T10:57:23.630Z,45.90
2018-09-20T10:59:51.550Z,46.20
2018-09-20T11:02:19.621Z,46.20
2018-09-20T11:04:48.193Z,46.30
2018-09-20T11:07:49.729Z,46.80
2018-09-20T11:10:17.370Z,46.80
2018-09-20T11:12:44.927Z,47.40
2018-09-20T11:15:12.523Z,46.80
2018-09-20T11:17:40.135Z,46.80
2018-09-20T11:20:07.867Z,46.30
2018-09-20T11:22:35.469Z,46.30
2018-09-20T11:25:03.052Z,45.60
2018-09-20T11:27:30.869Z,45.30
2018-09-20T11:29:58.690Z,44.50
2018-09-20T11:32:26.382Z,44.50
2018-09-20T11:34:54.257Z,45.00
2018-09-20T11:37:21.837Z,44.70
2018-09-20T11:39:49.435Z,44.60
2018-09-20T11:42:17.092Z,44.60
2018-09-20T11:44:44.764Z,44.50
2018-09-20T11:47:12.510Z,43.30
2018-09-20T11:49:40.208Z,43.40
2018-09-20T11:52:07.921Z,43.50
2018-09-20T11:54:35.520Z,42.60
2018-09-20T11:57:03.350Z,41.90
2018-09-20T11:59:30.994Z,41.70
2018-09-20T12:02:00.057Z,42.00
2018-09-20T12:04:27.624Z,42.00
2018-09-20T12:06:55.443Z,42.50
2018-09-20T12:09:23.078Z,41.60
2018-09-20T12:11:50.652Z,41.40
2018-09-20T12:14:18.192Z,41.70
2018-09-20T12:16:45.844Z,42.10
2018-09-20T12:19:13.433Z,41.50
2018-09-20T12:21:41.148Z,42.00
2018-09-20T12:24:08.921Z,41.80
2018-09-20T12:26:36.621Z,42.10
2018-09-20T12:29:04.520Z,41.80
2018-09-20T12:31:32.245Z,41.80
2018-09-20T12:34:00.035Z,41.70
2018-09-20T12:36:28.058Z,42.30
2018-09-20T12:38:55.914Z,42.10
2018-09-20T12:41:23.404Z,41.50
2018-09-20T12:43:51.098Z,41.60
2018-09-20T12:46:18.692Z,41.90
2018-09-20T12:48:46.307Z,42.20
2018-09-20T12:51:13.891Z,41.90
2018-09-20T12:53:41.415Z,41.10
2018-09-20T12:56:09.077Z,41.20
2018-09-20T12:58:40.736Z,40.80
2018-09-20T13:01:09.127Z,40.80
2018-09-20T13:03:36.947Z,40.60
2018-09-20T13:06:04.534Z,40.80
2018-09-20T13:08:32.391Z,41.30
2018-09-20T13:11:00.267Z,41.00
2018-09-20T13:13:27.943Z,40.80
2018-09-20T13:15:55.547Z,40.80
2018-09-20T13:18:23.242Z,41.20
2018-09-20T13:20:50.908Z,41.50
2018-09-20T13:23:19.656Z,41.40
2018-09-20T13:25:47.732Z,40.90
2018-09-20T13:28:15.405Z,40.90
2018-09-20T13:30:42.983Z,40.90
2018-09-20T13:33:10.623Z,40.90
2018-09-20T13:35:38.425Z,40.50
2018-09-20T13:38:06.107Z,41.40
2018-09-20T13:40:33.716Z,40.80
2018-09-20T13:43:01.446Z,41.30
2018-09-20T13:45:29.183Z,40.80
2018-09-20T13:47:56.785Z,41.40
2018-09-20T13:50:24.330Z,41.20
2018-09-20T13:52:51.914Z,41.40
2018-09-20T13:55:19.598Z,41.60
2018-09-20T13:57:47.191Z,41.60
2018-09-20T14:00:14.816Z,41.30
2018-09-20T14:02:42.686Z,42.30
2018-09-20T14:05:10.239Z,42.10
2018-09-20T14:07:37.949Z,42.60
2018-09-20T14:10:05.750Z,41.80
2018-09-20T14:12:33.386Z,41.80
2018-09-20T14:15:01.204Z,41.60
2018-09-20T14:17:28.858Z,41.30
2018-09-20T14:19:56.376Z,41.30
2018-09-20T14:22:24.308Z,41.60
2018-09-20T14:24:51.879Z,41.30
2018-09-20T14:27:19.370Z,41.10
2018-09-20T14:29:47.098Z,40.80
2018-09-20T14:32:14.636Z,41.50
2018-09-20T14:34:42.149Z,41.40
2018-09-20T14:37:09.726Z,41.40
2018-09-20T14:39:37.495Z,40.70
2018-09-20T14:42:05.283Z,40.10
2018-09-20T14:44:32.892Z,39.10
2018-09-20T14:47:00.571Z,38.40
2018-09-20T14:49:28.360Z,37.90
2018-09-20T14:51:55.874Z,37.70
2018-09-20T14:54:23.763Z,36.90
2018-09-20T14:56:52.096Z,36.50
2018-09-20T14:59:20.457Z,37.00
2018-09-20T15:01:48.518Z,36.70
2018-09-20T15:04:16.643Z,35.60
2018-09-20T15:06:44.224Z,35.60
2018-09-20T15:09:12.640Z,36.70
2018-09-20T15:11:40.217Z,36.70
2018-09-20T15:14:08.317Z,36.70
2018-09-20T15:16:37.275Z,36.70
2018-09-20T15:19:05.201Z,36.50
2018-09-20T15:21:36.086Z,36.80
2018-09-20T15:24:11.039Z,35.80
2018-09-20T15:26:38.635Z,36.40
2018-09-20T15:29:06.367Z,36.50
2018-09-20T15:31:33.917Z,37.20
2018-09-20T15:34:01.707Z,36.40
2018-09-20T15:36:29.307Z,36.50
2018-09-20T15:38:56.873Z,36.70
2018-09-20T15:41:24.428Z,36.60
2018-09-20T15:43:52.156Z,36.70
2018-09-20T15:46:19.904Z,38.20
2018-09-20T15:48:47.440Z,37.80
2018-09-20T15:51:15.100Z,37.70
2018-09-20T15:53:42.729Z,38.00
2018-09-20T15:56:17.442Z,38.30
2018-09-20T15:58:45.055Z,38.50
2018-09-20T16:01:14.708Z,38.50
2018-09-20T16:03:42.312Z,38.60
2018-09-20T16:06:09.967Z,38.80
2018-09-20T16:08:37.592Z,38.90
2018-09-20T16:11:05.278Z,39.30
2018-09-20T16:13:33.127Z,39.40
2018-09-20T16:16:00.656Z,39.40
2018-09-20T16:18:28.175Z,39.50
2018-09-20T16:20:55.843Z,39.80
2018-09-20T16:23:23.487Z,40.40
2018-09-20T16:25:51.062Z,40.30
2018-09-20T16:28:31.193Z,40.40
2018-09-20T16:31:43.887Z,40.50
2018-09-20T16:34:56.630Z,40.60
2018-09-20T16:37:33.677Z,41.10
2018-09-20T16:40:03.717Z,41.50
2018-09-20T16:42:33.343Z,42.00
2018-09-20T16:45:00.926Z,42.20
2018-09-20T16:47:28.442Z,42.10
2018-09-20T16:49:56.028Z,42.70
2018-09-20T16:52:23.678Z,43.20
2018-09-20T16:54:51.276Z,43.50
2018-09-20T16:57:18.830Z,43.80
2018-09-20T16:59:46.624Z,44.20
2018-09-20T17:02:14.202Z,44.90
2018-09-20T17:04:41.894Z,45.30
2018-09-20T17:07:09.566Z,45.50
2018-09-20T17:09:37.137Z,46.30
2018-09-20T17:12:06.247Z,46.30
2018-09-20T17:14:33.993Z,46.50
2018-09-20T17:17:01.465Z,46.60
2018-09-20T17:19:29.107Z,47.10
2018-09-20T17:21:56.771Z,47.60
2018-09-20T17:24:24.320Z,47.70
2018-09-20T17:26:51.942Z,47.90
2018-09-20T17:29:19.983Z,48.60
2018-09-20T17:31:47.598Z,48.40
2018-09-20T17:34:15.489Z,49.00
2018-09-20T17:36:43.310Z,49.10
2018-09-20T17:39:13.102Z,49.60
2018-09-20T17:41:42.760Z,49.50
2018-09-20T17:44:10.521Z,49.80
2018-09-20T17:46:38.423Z,50.00
2018-09-20T17:49:06.291Z,50.30
2018-09-20T17:51:34.453Z,50.30
2018-09-20T17:54:02.787Z,50.20
2018-09-20T17:56:31.403Z,50.30
2018-09-20T17:58:59.887Z,50.30
2018-09-20T18:01:27.560Z,50.30
2018-09-20T18:03:55.127Z,50.40
2018-09-20T18:06:22.713Z,50.50
2018-09-20T18:08:50.285Z,50.60
2018-09-20T18:11:18.166Z,50.60
2018-09-20T18:13:45.926Z,50.80
2018-09-20T18:16:13.721Z,51.00
2018-09-20T18:18:41.387Z,51.30
2018-09-20T18:21:09.391Z,51.40
2018-09-20T18:23:37.065Z,51.60
2018-09-20T18:26:04.768Z,51.70
2018-09-20T18:28:32.398Z,52.50
2018-09-20T18:31:00.001Z,52.00
2018-09-20T18:33:27.643Z,52.20
2018-09-20T18:35:55.315Z,52.50
2018-09-20T18:38:23.015Z,53.90
2018-09-20T18:40:50.597Z,53.60
2018-09-20T18:43:18.237Z,54.20
2018-09-20T18:45:45.806Z,54.10
2018-09-20T18:48:13.425Z,55.00
2018-09-20T18:50:41.146Z,54.90
2018-09-20T18:53:08.767Z,54.80
2018-09-20T18:55:36.561Z,54.90
2018-09-20T18:58:04.653Z,55.00
2018-09-20T19:00:32.238Z,55.20
2018-09-20T19:03:00.162Z,55.60
2018-09-20T19:05:29.335Z,55.80
2018-09-20T19:07:57.052Z,56.20
2018-09-20T19:10:24.677Z,56.40
2018-09-20T19:12:52.299Z,56.80
2018-09-20T19:15:19.895Z,57.10
2018-09-20T19:17:47.525Z,57.70
2018-09-20T19:20:15.130Z,57.80
2018-09-20T19:22:42.830Z,58.00
2018-09-20T19:25:10.445Z,58.50
2018-09-20T19:27:38.140Z,59.20
2018-09-20T19:30:06.838Z,59.10
2018-09-20T19:32:34.411Z,59.10
2018-09-20T19:35:02.028Z,59.60
2018-09-20T19:37:29.694Z,59.80
2018-09-20T19:39:57.429Z,60.10
2018-09-20T19:42:25.001Z,60.50
2018-09-20T19:44:52.594Z,60.90
2018-09-20T19:47:20.760Z,61.40
2018-09-20T19:49:48.489Z,62.30
2018-09-20T19:52:16.098Z,62.60
2018-09-20T19:54:44.105Z,62.40
2018-09-20T19:57:11.810Z,62.80
2018-09-20T19:59:39.874Z,63.00
2018-09-20T20:02:07.449Z,63.10
2018-09-20T20:04:35.263Z,62.90
2018-09-20T20:07:02.865Z,63.10
2018-09-20T20:09:30.646Z,63.60
2018-09-20T20:11:58.493Z,63.90
2018-09-20T20:14:26.267Z,64.00
2018-09-20T20:16:53.917Z,64.30
2018-09-20T20:19:22.665Z,64.60
2018-09-20T20:21:50.199Z,64.40
2018-09-20T20:24:17.895Z,65.00
2018-09-20T20:26:45.532Z,65.10
2018-09-20T20:29:13.133Z,65.10
2018-09-20T20:31:40.747Z,66.40
2018-09-20T20:34:08.491Z,66.70
2018-09-20T20:36:36.138Z,66.30
2018-09-20T20:39:05.842Z,66.80
2018-09-20T20:41:33.556Z,66.90
2018-09-20T20:44:01.117Z,67.20
2018-09-20T20:46:28.684Z,67.20
2018-09-20T20:48:56.260Z,67.60
2018-09-20T20:51:23.874Z,67.60
2018-09-20T20:53:51.495Z,67.90
2018-09-20T20:56:19.079Z,67.90
2018-09-20T20:58:46.751Z,68.60
2018-09-20T21:01:18.355Z,68.80
2018-09-20T21:03:46.410Z,69.00
2018-09-20T21:06:14.334Z,69.50
2018-09-20T21:08:41.928Z,69.90
2018-09-20T21:11:09.627Z,70.30
2018-09-20T21:13:38.714Z,70.60
2018-09-20T21:16:06.396Z,70.50
2018-09-20T21:18:33.926Z,70.50
2018-09-20T21:21:01.495Z,70.30
2018-09-20T21:23:29.192Z,70.50
2018-09-20T21:25:56.749Z,70.80
2018-09-20T21:28:24.706Z,70.80
2018-09-20T21:30:52.356Z,71.30
2018-09-20T21:33:20.389Z,71.40
2018-09-20T21:35:47.948Z,72.20
2018-09-20T21:38:15.600Z,72.10
2018-09-20T21:40:43.309Z,72.10
2018-09-20T21:43:11.054Z,72.40
2018-09-20T21:45:38.596Z,73.20
2018-09-20T21:48:06.818Z,73.80
2018-09-20T21:50:34.358Z,73.90
2018-09-20T21:53:01.909Z,74.20
2018-09-20T21:55:29.428Z,73.90
2018-09-20T21:57:57.047Z,73.80
2018-09-20T22:00:24.703Z,73.80
2018-09-20T22:03:08.457Z,74.00
2018-09-20T22:05:36.765Z,74.30
2018-09-20T22:08:05.769Z,74.20
2018-09-20T22:10:33.342Z,74.30
2018-09-20T22:13:01.105Z,74.60
2018-09-20T22:15:29.463Z,74.70
2018-09-20T22:17:57.791Z,74.70
2018-09-20T22:20:27.008Z,74.80
2018-09-20T22:22:54.626Z,75.60
2018-09-20T22:25:22.327Z,74.20
2018-09-20T22:27:49.970Z,75.10
2018-09-20T22:30:17.867Z,76.00
2018-09-20T22:32:45.820Z,76.90
2018-09-20T22:35:13.449Z,77.70
2018-09-20T22:37:40.984Z,77.30
2018-09-20T22:40:08.554Z,78.10
2018-09-20T22:42:36.175Z,78.10
2018-09-20T22:45:04.248Z,78.80
2018-09-20T22:47:33.198Z,79.30
2018-09-20T22:50:00.788Z,79.70
2018-09-20T22:52:28.359Z,81.30
2018-09-20T22:54:55.933Z,81.10
2018-09-20T22:57:23.504Z,82.10
2018-09-20T22:59:51.056Z,82.80
2018-09-20T23:02:18.771Z,83.60
2018-09-20T23:04:46.363Z,83.50
2018-09-20T23:07:15.129Z,83.80
2018-09-20T23:09:42.782Z,83.60
2018-09-20T23:12:10.641Z,84.20
2018-09-20T23:14:38.245Z,84.70
2018-09-20T23:17:05.864Z,83.70
2018-09-20T23:19:33.444Z,83.90
2018-09-20T23:22:01.066Z,84.00
2018-09-20T23:24:28.617Z,84.30
2018-09-20T23:26:56.212Z,83.70
2018-09-20T23:29:23.748Z,84.00
2018-09-20T23:31:51.482Z,84.30
2018-09-20T23:34:19.020Z,83.90
2018-09-20T23:36:46.716Z,83.50
2018-09-20T23:39:14.299Z,84.00
2018-09-20T23:41:41.894Z,84.00
2018-09-20T23:44:09.487Z,83.80
2018-09-20T23:46:37.384Z,84.10
2018-09-20T23:49:04.960Z,83.70
2018-09-20T23:51:32.677Z,84.10
2018-09-20T23:54:00.437Z,84.20
2018-09-20T23:56:28.118Z,84.00
2018-09-20T23:58:55.692Z,83.30
